Time;durP1;ratioP1;P1;durP2;ratioP2;P2;SDS_P1;SDS_P2;PMS_P1;PMS_P2;Temp;Humidity;BMP_temperature;BMP_pressure;BME280_temperature;BME280_humidity;BME280_pressure;Samples;Min_cycle;Max_cycle;Signal;HPM_P1;HPM_P2
2024/01/02 00:01:53;;;;;;;34.50;22.13;;;9.50;65.90;;;;;;5011145;28;20182;-83
2024/01/02 00:04:18;;;;;;;37.20;22.77;;;9.40;66.00;;;;;;5015658;28;20192;-84
2024/01/02 00:06:46;;;;;;;35.37;21.10;;;9.40;66.10;;;;;;5031141;28;20182;-84
2024/01/02 00:09:12;;;;;;;35.60;21.27;;;9.40;66.10;;;;;;5024867;28;20186;-85
2024/01/02 00:11:38;;;;;;;37.73;21.67;;;9.50;66.10;;;;;;5023838;28;20244;-83
2024/01/02 00:14:03;;;;;;;32.03;20.40;;;9.30;65.80;;;;;;5007295;28;20187;-84
2024/01/02 00:16:29;;;;;;;32.67;19.27;;;9.40;66.10;;;;;;5010655;28;20269;-84
2024/01/02 00:18:55;;;;;;;39.13;22.80;;;9.40;66.20;;;;;;5031349;28;20229;-82
2024/01/02 00:21:20;;;;;;;35.17;20.50;;;9.40;65.90;;;;;;5013497;28;20213;-84
2024/01/02 00:23:46;;;;;;;37.40;21.27;;;9.40;66.00;;;;;;5012809;28;20190;-84
2024/01/02 00:26:11;;;;;;;31.50;20.43;;;9.30;66.20;;;;;;5035787;28;20244;-83
2024/01/02 00:28:37;;;;;;;36.10;20.03;;;9.40;66.50;;;;;;5014165;28;20705;-84
2024/01/02 00:31:03;;;;;;;35.73;20.23;;;9.40;66.40;;;;;;5016903;28;20178;-83
2024/01/02 00:33:28;;;;;;;27.67;19.50;;;9.40;66.20;;;;;;5019457;28;20185;-84
2024/01/02 00:35:54;;;;;;;29.23;19.23;;;9.40;65.90;;;;;;5024294;28;20175;-84
2024/01/02 00:38:22;;;;;;;32.53;19.27;;;9.40;65.90;;;;;;5038593;28;20690;-84
2024/01/02 00:40:50;;;;;;;32.87;19.53;;;9.40;66.20;;;;;;5018776;28;20329;-84
2024/01/02 00:43:15;;;;;;;28.13;17.20;;;9.40;66.30;;;;;;5021055;28;20182;-84
2024/01/02 00:45:41;;;;;;;34.10;18.93;;;9.50;66.40;;;;;;5028791;28;20639;-82
2024/01/02 00:48:07;;;;;;;27.80;18.97;;;9.40;66.20;;;;;;5012148;28;20319;-83
2024/01/02 00:50:32;;;;;;;31.67;18.83;;;9.40;66.20;;;;;;5029356;28;20561;-84
2024/01/02 00:52:58;;;;;;;29.43;17.73;;;9.50;66.40;;;;;;5025572;28;20190;-83
2024/01/02 00:55:24;;;;;;;28.87;18.00;;;9.50;66.30;;;;;;5013826;28;20528;-84
2024/01/02 00:57:50;;;;;;;29.83;17.93;;;9.50;66.20;;;;;;5011533;28;20240;-84
2024/01/02 01:00:15;;;;;;;29.40;18.00;;;9.50;66.30;;;;;;5018404;28;20677;-84
2024/01/02 01:02:41;;;;;;;28.70;16.43;;;9.50;65.90;;;;;;5013494;28;20586;-82
2024/01/02 01:05:07;;;;;;;29.97;17.90;;;9.50;66.10;;;;;;5010833;28;20274;-85
2024/01/02 01:07:33;;;;;;;26.03;17.63;;;9.50;66.10;;;;;;5019431;28;20190;-84
2024/01/02 01:09:59;;;;;;;29.17;16.80;;;9.50;66.30;;;;;;5020327;28;20194;-84
2024/01/02 01:12:25;;;;;;;25.03;16.20;;;9.50;66.30;;;;;;5015400;28;20572;-83
2024/01/02 01:14:51;;;;;;;27.70;16.70;;;9.60;66.30;;;;;;5013162;28;20278;-84
2024/01/02 01:17:17;;;;;;;31.17;18.40;;;9.60;66.30;;;;;;5016387;28;20278;-83
2024/01/02 01:19:42;;;;;;;31.47;17.60;;;9.50;65.80;;;;;;5016223;28;20194;-84
2024/01/02 01:22:09;;;;;;;25.53;16.57;;;9.50;66.10;;;;;;5012874;28;20287;-84
2024/01/02 01:24:35;;;;;;;29.47;17.20;;;9.50;66.30;;;;;;5015064;28;20182;-82
2024/01/02 01:27:01;;;;;;;23.60;16.00;;;9.50;66.30;;;;;;5030051;28;20190;-84
2024/01/02 01:29:26;;;;;;;26.73;17.73;;;9.60;66.40;;;;;;5024012;28;20325;-83
2024/01/02 01:31:52;;;;;;;25.80;15.20;;;9.60;66.20;;;;;;5019236;28;20190;-84
2024/01/02 01:34:18;;;;;;;24.90;14.63;;;9.60;66.10;;;;;;5032111;28;20190;-83
2024/01/02 01:36:44;;;;;;;27.07;15.83;;;9.50;66.20;;;;;;5016290;28;20647;-84
2024/01/02 01:39:10;;;;;;;23.67;14.60;;;9.50;66.90;;;;;;5016649;28;20174;-82
2024/01/02 01:41:35;;;;;;;27.53;16.13;;;9.50;66.20;;;;;;5034828;28;20190;-84
2024/01/02 01:44:01;;;;;;;26.43;16.13;;;9.60;66.30;;;;;;5016666;28;20631;-84
2024/01/02 01:46:37;;;;;;;23.70;15.43;;;9.50;66.20;;;;;;5014911;28;20186;-86
2024/01/02 01:49:06;;;;;;;25.63;15.83;;;9.50;66.40;;;;;;5016362;28;20181;-84
2024/01/02 01:51:33;;;;;;;26.43;16.10;;;9.50;66.30;;;;;;5016044;28;20178;-84
2024/01/02 01:54:02;;;;;;;28.63;15.47;;;9.50;66.50;;;;;;5010739;28;20210;-84
2024/01/02 01:56:29;;;;;;;26.30;15.30;;;9.60;66.50;;;;;;5016211;28;20699;-84
2024/01/02 01:58:55;;;;;;;27.17;15.20;;;9.50;66.30;;;;;;5019739;28;20831;-84
2024/01/02 02:01:22;;;;;;;23.70;15.27;;;9.50;66.30;;;;;;5015203;28;20573;-84
2024/01/02 02:03:48;;;;;;;24.50;14.23;;;9.50;66.30;;;;;;5014241;28;20202;-84
2024/01/02 02:06:15;;;;;;;24.40;15.27;;;9.50;66.40;;;;;;5038758;28;20185;-85
2024/01/02 02:08:41;;;;;;;25.07;14.90;;;9.60;66.50;;;;;;5037217;28;20179;-85
2024/01/02 02:11:07;;;;;;;27.73;15.37;;;9.60;66.60;;;;;;5013503;28;20182;-85
2024/01/02 02:13:33;;;;;;;25.27;14.33;;;9.60;66.60;;;;;;5016861;28;20214;-83
2024/01/02 02:15:58;;;;;;;27.37;14.80;;;9.60;66.30;;;;;;5014086;28;20213;-83
2024/01/02 02:18:24;;;;;;;23.93;13.50;;;9.70;66.40;;;;;;5016599;28;20202;-83
2024/01/02 02:20:50;;;;;;;23.90;13.80;;;9.60;66.20;;;;;;5017635;28;20201;-84
2024/01/02 02:23:16;;;;;;;25.17;14.63;;;9.60;66.30;;;;;;5041218;28;20179;-83
2024/01/02 02:25:41;;;;;;;22.70;12.73;;;9.60;66.50;;;;;;5034826;28;20182;-84
2024/01/02 02:28:07;;;;;;;23.53;13.57;;;9.70;66.70;;;;;;5014207;28;20182;-84
2024/01/02 02:30:33;;;;;;;20.83;12.57;;;9.60;67.20;;;;;;5013804;28;20210;-84
2024/01/02 02:32:58;;;;;;;21.53;12.77;;;9.60;66.50;;;;;;5037676;28;20236;-84
2024/01/02 02:35:24;;;;;;;21.13;12.87;;;9.60;66.40;;;;;;5037229;28;20193;-84
2024/01/02 02:37:52;;;;;;;22.60;12.37;;;9.70;66.60;;;;;;5038864;28;20289;-85
2024/01/02 02:40:17;;;;;;;20.27;12.37;;;9.60;66.60;;;;;;5010003;28;20183;-84
2024/01/02 02:42:43;;;;;;;22.00;12.27;;;9.70;66.70;;;;;;5019791;28;20178;-84
2024/01/02 02:45:10;;;;;;;22.60;12.23;;;9.70;66.60;;;;;;5017012;28;20198;-82
2024/01/02 02:47:35;;;;;;;23.37;12.60;;;9.70;66.50;;;;;;5011086;28;20732;-84
2024/01/02 02:50:01;;;;;;;19.40;11.97;;;9.70;66.60;;;;;;5015312;28;20182;-84
2024/01/02 02:52:27;;;;;;;20.17;12.37;;;9.80;66.80;;;;;;5040557;28;20185;-83
2024/01/02 02:54:52;;;;;;;22.97;12.87;;;9.90;66.80;;;;;;5019402;28;20194;-84
2024/01/02 02:57:18;;;;;;;19.97;11.60;;;9.90;66.60;;;;;;5018440;28;20205;-83
2024/01/02 02:59:43;;;;;;;20.23;11.83;;;9.80;66.30;;;;;;5019931;28;20391;-83
2024/01/02 03:02:09;;;;;;;21.50;12.40;;;9.90;66.50;;;;;;5033342;28;20183;-84
2024/01/02 03:04:35;;;;;;;20.53;11.60;;;9.90;66.40;;;;;;5013025;28;20190;-83
2024/01/02 03:07:00;;;;;;;21.17;11.90;;;9.90;66.40;;;;;;5015026;28;20638;-82
2024/01/02 03:09:26;;;;;;;16.63;11.03;;;9.90;66.50;;;;;;5012164;28;20673;-84
2024/01/02 03:11:51;;;;;;;20.33;12.30;;;9.90;66.60;;;;;;5015935;28;20268;-82
2024/01/02 03:14:17;;;;;;;23.50;12.43;;;10.00;65.40;;;;;;5013469;28;20580;-84
2024/01/02 03:16:42;;;;;;;23.50;11.87;;;10.00;65.20;;;;;;5012671;28;20231;-83
2024/01/02 03:19:08;;;;;;;21.00;10.97;;;10.10;65.40;;;;;;5009294;28;20190;-83
2024/01/02 03:21:33;;;;;;;19.23;10.87;;;10.00;65.10;;;;;;5019968;28;20269;-84
2024/01/02 03:24:02;;;;;;;18.67;10.67;;;10.00;65.00;;;;;;5015895;28;20179;-84
2024/01/02 03:26:28;;;;;;;19.87;11.93;;;10.10;65.10;;;;;;5027397;28;20242;-83
2024/01/02 03:28:54;;;;;;;21.93;11.13;;;10.00;65.20;;;;;;5022558;28;20581;-82
2024/01/02 03:31:20;;;;;;;20.27;10.33;;;10.00;65.20;;;;;;5017095;28;20181;-84
2024/01/02 03:33:47;;;;;;;15.60;10.63;;;10.10;65.30;;;;;;5020568;28;20630;-83
2024/01/02 03:36:13;;;;;;;22.73;10.87;;;10.00;64.90;;;;;;5015712;28;20183;-84
2024/01/02 03:38:39;;;;;;;16.17;10.43;;;10.10;65.00;;;;;;5011588;28;20206;-84
2024/01/02 03:41:05;;;;;;;19.27;10.57;;;10.10;65.00;;;;;;5013324;28;20197;-84
2024/01/02 03:43:30;;;;;;;18.20;10.67;;;10.10;65.00;;;;;;5013027;28;20170;-84
2024/01/02 03:45:56;;;;;;;17.30;10.53;;;10.10;65.10;;;;;;5018554;28;20216;-84
2024/01/02 03:48:23;;;;;;;18.50;10.97;;;10.10;65.10;;;;;;5014311;28;20629;-84
2024/01/02 03:50:49;;;;;;;20.70;10.07;;;10.10;65.00;;;;;;5012557;28;20222;-84
2024/01/02 03:53:14;;;;;;;19.00;10.73;;;10.20;65.10;;;;;;5018489;28;20637;-84
2024/01/02 03:55:40;;;;;;;16.17;10.50;;;10.10;64.90;;;;;;5012759;28;20182;-84
2024/01/02 03:58:06;;;;;;;22.73;11.23;;;10.20;65.00;;;;;;5035010;28;20197;-84
2024/01/02 04:00:33;;;;;;;19.93;10.47;;;10.20;64.70;;;;;;5012783;28;20219;-84
2024/01/02 04:02:59;;;;;;;18.43;9.70;;;10.10;64.80;;;;;;5009889;28;20560;-84
2024/01/02 04:05:25;;;;;;;20.70;10.67;;;10.10;65.00;;;;;;5013022;28;20190;-84
2024/01/02 04:07:51;;;;;;;19.00;10.13;;;10.20;65.10;;;;;;5016700;28;20196;-84
2024/01/02 04:10:17;;;;;;;17.17;10.77;;;10.20;65.10;;;;;;5013147;28;20270;-84
2024/01/02 04:12:43;;;;;;;24.57;12.80;;;10.20;65.00;;;;;;5031501;28;20241;-83
2024/01/02 04:15:09;;;;;;;23.33;11.17;;;10.20;64.80;;;;;;5020861;28;20183;-84
2024/01/02 04:17:34;;;;;;;16.87;10.70;;;10.10;64.80;;;;;;5018044;28;20300;-84
2024/01/02 04:20:00;;;;;;;24.03;11.77;;;10.10;65.10;;;;;;5035965;28;20190;-83
2024/01/02 04:22:25;;;;;;;19.33;10.63;;;10.10;65.00;;;;;;5009433;28;20183;-84
2024/01/02 04:24:51;;;;;;;19.13;10.20;;;10.20;65.10;;;;;;5010495;28;20186;-83
2024/01/02 04:27:17;;;;;;;23.07;11.63;;;10.20;65.10;;;;;;5013835;28;20178;-84
2024/01/02 04:29:42;;;;;;;18.60;11.50;;;10.20;64.70;;;;;;5013207;28;20672;-84
2024/01/02 04:32:08;;;;;;;20.33;11.27;;;10.10;64.70;;;;;;5014653;28;20178;-83
2024/01/02 04:34:33;;;;;;;22.13;11.20;;;10.10;64.90;;;;;;5018756;28;20181;-83
2024/01/02 04:36:59;;;;;;;18.90;10.93;;;10.20;65.10;;;;;;5037529;28;20257;-84
2024/01/02 04:39:25;;;;;;;19.67;11.43;;;10.20;64.80;;;;;;5017616;28;20604;-84
2024/01/02 04:41:52;;;;;;;17.17;11.43;;;10.20;64.80;;;;;;5017428;28;20237;-83
2024/01/02 04:44:17;;;;;;;22.47;11.27;;;10.20;65.70;;;;;;5036191;28;20173;-83
2024/01/02 04:46:43;;;;;;;18.63;12.30;;;10.20;64.90;;;;;;5018269;28;20290;-84
2024/01/02 04:49:09;;;;;;;19.63;11.80;;;10.20;64.90;;;;;;5019541;28;20178;-84
2024/01/02 04:51:34;;;;;;;19.07;11.87;;;10.20;65.00;;;;;;5019428;28;20273;-83
2024/01/02 04:54:00;;;;;;;17.83;11.37;;;10.20;65.00;;;;;;5018566;28;20181;-84
2024/01/02 04:56:26;;;;;;;20.00;12.10;;;10.20;65.00;;;;;;5016646;28;20753;-84
2024/01/02 04:58:51;;;;;;;18.73;12.10;;;10.20;64.60;;;;;;5014995;28;20212;-84
2024/01/02 05:01:17;;;;;;;18.23;12.47;;;10.20;64.80;;;;;;5040283;28;20253;-83
2024/01/02 05:03:43;;;;;;;19.43;12.03;;;10.20;64.90;;;;;;5022360;28;20654;-84
2024/01/02 05:06:08;;;;;;;18.13;11.43;;;10.20;65.10;;;;;;5017982;28;20252;-84
2024/01/02 05:08:34;;;;;;;19.17;12.43;;;10.20;65.10;;;;;;5020248;28;20198;-84
2024/01/02 05:11:00;;;;;;;19.23;11.53;;;10.20;65.00;;;;;;5015494;28;20178;-84
2024/01/02 05:13:25;;;;;;;16.67;11.37;;;10.20;64.90;;;;;;5015269;28;20189;-84
2024/01/02 05:15:51;;;;;;;21.37;11.83;;;10.20;64.80;;;;;;5031986;28;20268;-84
2024/01/02 05:18:16;;;;;;;22.20;13.23;;;10.20;64.80;;;;;;5039989;28;20286;-85
2024/01/02 05:20:42;;;;;;;17.53;11.83;;;10.10;64.70;;;;;;5007620;28;20194;-83
2024/01/02 05:23:08;;;;;;;20.07;12.13;;;10.10;65.00;;;;;;5016461;28;20174;-85
2024/01/02 05:25:33;;;;;;;15.37;11.73;;;10.10;65.20;;;;;;5015507;28;20674;-86
2024/01/02 05:27:59;;;;;;;19.27;12.70;;;10.20;65.20;;;;;;5015720;28;20320;-84
2024/01/02 05:30:25;;;;;;;21.20;12.70;;;10.20;65.10;;;;;;5012077;28;20186;-85
2024/01/02 05:32:51;;;;;;;19.13;12.20;;;10.20;65.20;;;;;;5015206;28;20193;-85
2024/01/02 05:35:18;;;;;;;17.20;12.50;;;10.20;65.20;;;;;;5019360;28;20549;-86
2024/01/02 05:37:43;;;;;;;17.97;12.93;;;10.20;65.10;;;;;;5022194;28;20203;-84
2024/01/02 05:40:10;;;;;;;16.53;12.27;;;10.20;65.00;;;;;;5016430;28;20190;-85
2024/01/02 05:42:35;;;;;;;20.07;12.03;;;10.10;64.70;;;;;;5021004;28;20186;-85
2024/01/02 05:45:01;;;;;;;18.57;13.30;;;10.10;65.00;;;;;;5015704;28;20182;-85
2024/01/02 05:47:27;;;;;;;17.77;12.70;;;10.20;65.20;;;;;;5033848;28;20247;-84
2024/01/02 05:49:53;;;;;;;18.50;13.23;;;10.00;65.10;;;;;;5032883;28;20186;-85
2024/01/02 05:52:18;;;;;;;17.93;12.87;;;10.00;65.40;;;;;;5012744;28;20719;-84
2024/01/02 05:54:44;;;;;;;18.03;12.17;;;10.10;65.60;;;;;;5014663;28;20219;-85
2024/01/02 05:57:11;;;;;;;19.37;13.37;;;10.10;65.50;;;;;;5013086;28;20269;-86
2024/01/02 05:59:37;;;;;;;19.27;12.67;;;10.20;65.30;;;;;;5014961;28;20182;-84
2024/01/02 06:02:03;;;;;;;18.80;12.90;;;10.10;64.90;;;;;;5008183;28;20339;-85
2024/01/02 06:04:28;;;;;;;16.03;12.50;;;10.00;65.10;;;;;;5013369;28;20636;-85
2024/01/02 06:06:54;;;;;;;17.17;12.63;;;10.10;65.20;;;;;;5010273;28;20198;-85
2024/01/02 06:09:20;;;;;;;19.10;12.23;;;10.10;65.20;;;;;;5012845;28;20273;-84
2024/01/02 06:11:45;;;;;;;16.13;11.13;;;10.10;65.40;;;;;;5032135;28;20516;-85
2024/01/02 06:14:11;;;;;;;16.17;11.77;;;10.10;65.10;;;;;;5010956;28;20623;-86
2024/01/02 06:16:38;;;;;;;17.23;12.33;;;10.10;65.20;;;;;;5029107;28;20277;-84
2024/01/02 06:19:05;;;;;;;19.50;12.47;;;10.10;65.90;;;;;;5011582;28;20236;-84
2024/01/02 06:21:30;;;;;;;17.33;11.40;;;10.10;65.10;;;;;;5010370;28;20187;-85
2024/01/02 06:23:56;;;;;;;16.13;11.87;;;10.10;65.20;;;;;;5014436;28;20708;-85
2024/01/02 06:26:22;;;;;;;16.10;12.50;;;10.10;65.10;;;;;;5031865;28;20194;-85
2024/01/02 06:28:47;;;;;;;17.17;11.93;;;10.10;65.10;;;;;;5012914;28;20194;-85
2024/01/02 06:31:13;;;;;;;17.00;12.77;;;10.00;64.80;;;;;;5028999;28;20272;-85
2024/01/02 06:33:44;;;;;;;18.17;12.33;;;10.10;65.10;;;;;;5012268;28;20542;-84
2024/01/02 06:36:13;;;;;;;17.07;12.10;;;10.00;65.10;;;;;;5014122;28;20209;-84
2024/01/02 06:38:38;;;;;;;16.50;12.47;;;10.00;65.40;;;;;;5009724;28;20210;-84
2024/01/02 06:41:04;;;;;;;15.27;12.10;;;10.00;65.40;;;;;;5013146;28;20186;-84
2024/01/02 06:43:30;;;;;;;17.00;13.23;;;10.00;65.20;;;;;;5012700;28;20316;-84
2024/01/02 06:45:56;;;;;;;16.63;12.93;;;10.10;65.40;;;;;;5009863;28;20186;-84
2024/01/02 06:48:22;;;;;;;20.80;12.67;;;10.10;65.40;;;;;;5011006;28;20317;-83
2024/01/02 06:50:48;;;;;;;14.40;11.30;;;10.10;65.30;;;;;;5014052;28;20606;-83
2024/01/02 06:53:14;;;;;;;14.93;11.80;;;10.20;65.30;;;;;;5006817;28;20173;-83
2024/01/02 06:55:39;;;;;;;17.20;12.10;;;10.10;65.00;;;;;;5007935;28;20516;-83
2024/01/02 06:58:05;;;;;;;17.63;12.67;;;10.00;65.10;;;;;;5011293;28;20209;-83
2024/01/02 07:00:32;;;;;;;15.57;12.63;;;10.00;65.10;;;;;;5036956;28;20273;-83
2024/01/02 07:02:58;;;;;;;13.63;12.07;;;10.00;65.20;;;;;;5018826;28;20186;-83
2024/01/02 07:05:24;;;;;;;17.30;12.43;;;10.00;65.30;;;;;;5014303;28;20181;-84
2024/01/02 07:07:50;;;;;;;12.33;10.70;;;10.00;65.20;;;;;;5006752;28;20179;-85
2024/01/02 07:10:15;;;;;;;12.63;10.03;;;9.90;66.50;;;;;;5012519;28;20854;-84
2024/01/02 07:12:41;;;;;;;10.90;9.30;;;10.00;65.70;;;;;;5012878;28;20663;-84
2024/01/02 07:15:07;;;;;;;10.23;9.20;;;9.90;67.00;;;;;;5028451;28;20198;-84
2024/01/02 07:17:32;;;;;;;11.93;8.70;;;10.00;65.60;;;;;;5013468;28;20214;-83
2024/01/02 07:19:59;;;;;;;13.13;9.57;;;10.00;65.60;;;;;;5012926;28;20602;-84
2024/01/02 07:22:26;;;;;;;11.07;9.23;;;10.00;65.60;;;;;;5009113;28;20178;-84
2024/01/02 07:24:52;;;;;;;8.37;7.57;;;10.10;65.60;;;;;;5012941;28;20343;-84
2024/01/02 07:27:18;;;;;;;10.93;9.00;;;10.10;65.50;;;;;;5013479;28;20210;-84
2024/01/02 07:29:43;;;;;;;13.37;9.10;;;10.00;65.10;;;;;;5015078;28;20194;-84
2024/01/02 07:32:09;;;;;;;13.00;9.03;;;10.00;65.20;;;;;;5030948;28;20185;-84
2024/01/02 07:34:34;;;;;;;10.63;9.10;;;10.00;65.40;;;;;;5032852;28;20201;-84
2024/01/02 07:37:00;;;;;;;10.10;9.00;;;10.00;65.30;;;;;;5004391;28;20196;-84
2024/01/02 07:39:28;;;;;;;10.67;9.43;;;10.10;65.40;;;;;;5011487;28;20198;-83
2024/01/02 07:41:54;;;;;;;11.33;9.10;;;10.00;65.40;;;;;;5017810;28;20189;-83
2024/01/02 07:44:21;;;;;;;10.63;9.20;;;10.00;65.40;;;;;;5009185;28;20183;-84
2024/01/02 07:46:47;;;;;;;10.53;8.97;;;10.00;65.40;;;;;;5030956;28;20213;-83
2024/01/02 07:49:13;;;;;;;15.97;9.60;;;10.10;65.70;;;;;;5008669;28;20599;-84
2024/01/02 07:51:38;;;;;;;10.77;9.60;;;10.10;65.60;;;;;;5006845;28;20274;-83
2024/01/02 07:54:04;;;;;;;12.30;9.43;;;10.10;65.50;;;;;;5012877;28;20186;-83
2024/01/02 07:56:30;;;;;;;13.93;10.83;;;10.10;65.50;;;;;;5031355;28;20623;-83
2024/01/02 07:58:56;;;;;;;13.27;9.97;;;10.10;65.50;;;;;;5003550;28;20301;-83
2024/01/02 08:01:22;;;;;;;14.60;10.87;;;10.20;65.50;;;;;;5007556;28;20695;-83
2024/01/02 08:03:48;;;;;;;12.27;10.70;;;10.20;65.40;;;;;;5023792;28;20268;-83
2024/01/02 08:06:13;;;;;;;13.33;11.90;;;10.20;65.30;;;;;;5012494;28;20266;-83
2024/01/02 08:08:39;;;;;;;13.10;10.67;;;10.20;65.50;;;;;;5009296;28;20186;-83
2024/01/02 08:11:05;;;;;;;12.63;10.97;;;10.30;65.60;;;;;;5017961;28;20182;-83
2024/01/02 08:13:30;;;;;;;12.80;11.17;;;10.30;65.30;;;;;;5018383;28;20178;-83
2024/01/02 08:15:56;;;;;;;14.50;11.80;;;10.20;65.30;;;;;;5013354;28;20674;-83
2024/01/02 08:18:22;;;;;;;15.67;12.23;;;10.20;65.50;;;;;;5017884;28;20606;-83
2024/01/02 08:20:47;;;;;;;14.73;12.50;;;10.20;65.30;;;;;;5009924;28;20577;-82
2024/01/02 08:23:13;;;;;;;19.40;14.03;;;10.10;65.10;;;;;;5016320;28;20657;-83
2024/01/02 08:25:39;;;;;;;20.43;13.70;;;10.10;65.40;;;;;;5014875;28;20213;-83
2024/01/02 08:28:06;;;;;;;17.30;14.53;;;10.20;65.60;;;;;;5018491;28;20194;-83
2024/01/02 08:30:32;;;;;;;18.43;14.07;;;10.20;65.50;;;;;;5040248;28;20631;-83
2024/01/02 08:32:58;;;;;;;16.27;14.03;;;10.20;65.50;;;;;;5017729;28;20270;-83
2024/01/02 08:35:24;;;;;;;18.90;15.23;;;10.30;65.70;;;;;;5014828;28;20182;-83
2024/01/02 08:37:50;;;;;;;21.03;16.23;;;10.30;65.60;;;;;;5012496;28;20206;-83
2024/01/02 08:40:15;;;;;;;17.33;14.70;;;10.30;65.30;;;;;;5014762;28;20190;-82
2024/01/02 08:42:41;;;;;;;23.57;16.80;;;10.30;65.40;;;;;;5014657;28;20186;-82
2024/01/02 08:45:10;;;;;;;20.43;15.80;;;10.40;65.50;;;;;;5015444;28;20182;-84
2024/01/02 08:47:38;;;;;;;19.53;16.57;;;10.30;65.30;;;;;;5011923;28;20233;-83
2024/01/02 08:50:07;;;;;;;18.67;15.73;;;10.30;65.50;;;;;;5015616;28;20644;-85
2024/01/02 08:52:35;;;;;;;19.13;15.87;;;10.30;65.40;;;;;;5033788;28;20369;-86
2024/01/02 08:55:02;;;;;;;22.63;16.87;;;10.30;65.40;;;;;;5013183;28;20186;-83
2024/01/02 08:57:28;;;;;;;18.83;16.53;;;10.30;65.40;;;;;;5005029;28;20207;-85
2024/01/02 08:59:53;;;;;;;23.10;17.20;;;10.40;65.50;;;;;;5002745;28;20190;-86
2024/01/02 09:02:19;;;;;;;18.23;15.23;;;10.30;65.60;;;;;;5010114;28;20324;-83
2024/01/02 09:04:45;;;;;;;21.47;15.90;;;10.40;65.60;;;;;;5013183;28;20704;-83
2024/01/02 09:07:10;;;;;;;16.40;14.60;;;10.40;65.50;;;;;;5011866;28;20183;-83
2024/01/02 09:09:36;;;;;;;18.53;15.63;;;10.40;65.60;;;;;;5016815;28;20192;-83
2024/01/02 09:12:02;;;;;;;17.40;15.60;;;10.50;65.60;;;;;;5012438;28;20183;-84
2024/01/02 09:14:31;;;;;;;19.17;16.20;;;10.50;65.40;;;;;;5012747;28;20244;-84
2024/01/02 09:16:56;;;;;;;21.50;16.03;;;10.50;65.50;;;;;;5024190;28;20179;-84
2024/01/02 09:19:22;;;;;;;21.33;16.20;;;10.50;65.30;;;;;;4996755;28;20241;-84
2024/01/02 09:21:48;;;;;;;19.90;16.10;;;10.50;65.20;;;;;;5008700;28;20221;-85
2024/01/02 09:24:16;;;;;;;20.87;16.67;;;10.50;65.20;;;;;;5011726;28;20186;-83
2024/01/02 09:26:45;;;;;;;20.73;16.70;;;10.50;65.40;;;;;;5012480;28;20175;-83
2024/01/02 09:29:12;;;;;;;23.47;16.77;;;10.50;65.50;;;;;;5013531;28;20190;-82
2024/01/02 09:31:40;;;;;;;21.77;17.50;;;10.50;65.30;;;;;;5021417;28;20182;-83
2024/01/02 09:34:06;;;;;;;21.47;17.13;;;10.60;65.50;;;;;;5015620;28;20205;-84
2024/01/02 09:36:31;;;;;;;22.77;16.30;;;10.50;65.50;;;;;;5015093;28;20266;-83
2024/01/02 09:38:57;;;;;;;17.30;15.47;;;10.60;65.60;;;;;;5014456;28;20214;-84
2024/01/02 09:41:44;;;;;;;21.30;16.13;;;10.60;65.40;;;;;;5015217;28;20285;-84
2024/01/02 09:44:10;;;;;;;19.40;15.03;;;10.60;65.30;;;;;;5040350;28;20185;-84
2024/01/02 09:46:54;;;;;;;20.37;16.87;;;10.60;65.30;;;;;;5022020;28;20313;-84
2024/01/02 09:49:30;;;;;;;21.13;16.60;;;10.60;65.30;;;;;;5008256;28;20574;-84
2024/01/02 09:51:59;;;;;;;19.97;17.20;;;10.60;65.30;;;;;;5021179;28;20255;-84
2024/01/02 09:54:42;;;;;;;17.37;14.93;;;10.50;65.10;;;;;;5016209;28;20269;-83
2024/01/02 09:57:24;;;;;;;19.23;16.83;;;10.50;65.10;;;;;;5002613;28;20647;-84
2024/01/02 10:00:11;;;;;;;23.60;17.73;;;10.60;65.50;;;;;;5003900;28;20195;-84
2024/01/02 10:02:42;;;;;;;19.77;17.17;;;10.50;65.40;;;;;;5022541;28;20182;-84
2024/01/02 10:05:42;;;;;;;22.20;18.03;;;10.60;65.70;;;;;;5012856;28;20197;-83
2024/01/02 10:08:19;;;;;;;19.93;17.10;;;10.60;65.60;;;;;;5027075;28;20197;-84
2024/01/02 10:10:54;;;;;;;22.37;18.77;;;10.60;65.60;;;;;;5009962;28;20229;-84
2024/01/02 10:13:25;;;;;;;22.97;19.67;;;10.70;65.60;;;;;;5016693;28;20178;-85
2024/01/02 10:16:05;;;;;;;21.60;19.23;;;10.70;65.40;;;;;;5003111;28;20186;-84
2024/01/02 10:18:44;;;;;;;21.23;18.77;;;10.60;65.20;;;;;;5014476;28;20210;-84
2024/01/02 10:21:29;;;;;;;24.07;20.13;;;10.70;65.40;;;;;;5008356;28;20237;-83
2024/01/02 10:24:04;;;;;;;25.07;19.60;;;10.70;65.50;;;;;;5017064;28;20216;-84
2024/01/02 10:26:37;;;;;;;22.90;19.40;;;10.70;65.60;;;;;;5008112;28;20174;-84
2024/01/02 10:29:06;;;;;;;24.30;18.90;;;10.70;65.40;;;;;;5033458;28;20240;-84
2024/01/02 10:32:17;;;;;;;21.17;18.33;;;10.70;65.40;;;;;;5014741;28;20182;-83
2024/01/02 10:35:04;;;;;;;20.67;18.07;;;10.80;65.40;;;;;;4946907;28;20200;-84
2024/01/02 10:37:38;;;;;;;23.13;19.53;;;10.80;65.40;;;;;;4960532;28;20212;-84
2024/01/02 10:40:12;;;;;;;19.57;17.27;;;10.80;65.50;;;;;;4957462;28;20233;-84
2024/01/02 10:43:08;;;;;;;22.20;17.87;;;10.80;65.40;;;;;;4952938;28;20203;-83
2024/01/02 10:45:45;;;;;;;21.73;17.70;;;10.80;65.20;;;;;;4954669;28;20196;-84
2024/01/02 10:48:25;;;;;;;23.13;16.80;;;10.80;65.10;;;;;;4949496;28;20228;-85
2024/01/02 10:51:08;;;;;;;18.80;15.90;;;10.80;65.00;;;;;;4978619;28;20184;-83
2024/01/02 10:53:33;;;;;;;19.73;16.67;;;10.80;65.20;;;;;;4956877;28;20196;-83
2024/01/02 10:56:13;;;;;;;18.10;15.77;;;10.90;65.20;;;;;;4965256;28;20189;-84
2024/01/02 10:59:07;;;;;;;18.73;16.63;;;10.80;65.00;;;;;;4950297;28;20230;-85
2024/01/02 11:01:38;;;;;;;21.43;17.30;;;10.80;65.00;;;;;;4960323;28;20683;-84
2024/01/02 11:04:21;;;;;;;18.73;15.90;;;10.90;65.20;;;;;;4947376;28;20189;-84
2024/01/02 11:07:05;;;;;;;17.93;15.23;;;10.90;65.10;;;;;;5004766;28;20563;-85
2024/01/02 11:09:47;;;;;;;19.20;16.03;;;10.90;65.10;;;;;;5007915;28;20183;-85
2024/01/02 11:12:16;;;;;;;19.13;15.73;;;10.90;65.10;;;;;;5011799;28;20201;-85
2024/01/02 11:14:43;;;;;;;18.47;16.17;;;10.90;64.90;;;;;;5011348;28;20182;-83
2024/01/02 11:17:13;;;;;;;17.00;15.17;;;10.90;64.80;;;;;;5013965;28;20182;-84
2024/01/02 11:20:06;;;;;;;17.47;15.67;;;10.90;64.90;;;;;;5011653;28;20203;-85
2024/01/02 11:22:57;;;;;;;18.43;16.17;;;10.90;64.80;;;;;;5004278;28;20721;-85
2024/01/02 11:25:27;;;;;;;18.00;15.63;;;10.90;64.80;;;;;;5004953;28;20268;-84
2024/01/02 11:27:54;;;;;;;22.10;16.73;;;10.90;65.00;;;;;;5012483;28;20194;-85
2024/01/02 11:30:21;;;;;;;19.70;15.70;;;10.90;65.00;;;;;;5013505;28;20247;-85
2024/01/02 11:32:50;;;;;;;17.97;15.87;;;11.00;65.10;;;;;;5032212;28;20178;-85
2024/01/02 11:35:16;;;;;;;20.57;16.77;;;11.00;65.00;;;;;;5018782;28;20200;-85
2024/01/02 11:37:47;;;;;;;17.60;15.80;;;11.00;65.00;;;;;;5030816;28;20702;-85
2024/01/02 11:40:19;;;;;;;19.13;16.47;;;11.00;64.90;;;;;;5014017;28;20198;-84
2024/01/02 11:42:57;;;;;;;22.77;17.20;;;11.10;65.00;;;;;;5017050;28;20264;-84
2024/01/02 11:45:26;;;;;;;18.60;16.63;;;11.00;64.90;;;;;;5018514;28;20175;-85
2024/01/02 11:48:15;;;;;;;18.77;16.27;;;11.00;64.90;;;;;;5013905;28;20248;-84
2024/01/02 11:50:55;;;;;;;20.73;16.90;;;11.00;65.00;;;;;;5020182;28;20186;-84
2024/01/02 11:53:52;;;;;;;18.77;16.67;;;11.10;65.20;;;;;;5025616;28;20547;-85
2024/01/02 11:56:22;;;;;;;19.63;16.10;;;11.10;65.20;;;;;;5012835;28;20182;-84
2024/01/02 11:59:22;;;;;;;22.47;16.73;;;11.10;65.20;;;;;;5021621;28;20218;-85
2024/01/02 12:02:21;;;;;;;19.40;16.00;;;11.10;64.90;;;;;;5014378;28;21058;-85
2024/01/02 12:05:05;;;;;;;19.97;17.03;;;11.10;64.90;;;;;;4978468;28;20190;-85
2024/01/02 12:07:38;;;;;;;19.17;16.00;;;11.10;65.00;;;;;;5014013;28;20256;-85
2024/01/02 12:10:05;;;;;;;18.43;15.97;;;11.10;64.80;;;;;;4998275;28;20937;-85
2024/01/02 12:12:54;;;;;;;21.33;17.30;;;11.10;64.70;;;;;;5008730;28;20275;-85
2024/01/02 12:15:54;;;;;;;19.90;16.33;;;11.10;64.70;;;;;;5032259;28;20233;-85
2024/01/02 12:18:26;;;;;;;18.60;15.63;;;11.10;64.70;;;;;;5006324;28;20265;-85
2024/01/02 12:21:02;;;;;;;20.40;15.23;;;11.20;64.70;;;;;;5001615;28;20240;-84
2024/01/02 12:23:31;;;;;;;20.43;16.10;;;11.20;64.70;;;;;;5012529;28;20190;-85
2024/01/02 12:26:08;;;;;;;18.80;15.77;;;11.20;64.60;;;;;;5029001;28;20190;-84
2024/01/02 12:28:41;;;;;;;18.07;15.30;;;11.20;64.70;;;;;;5004860;28;22388;-85
2024/01/02 12:31:17;;;;;;;21.10;16.83;;;11.30;64.80;;;;;;5017404;28;20190;-84
2024/01/02 12:33:49;;;;;;;19.07;15.67;;;11.20;64.50;;;;;;5000114;28;20183;-84
2024/01/02 12:36:18;;;;;;;17.67;15.10;;;11.20;64.40;;;;;;5007096;28;20186;-85
2024/01/02 12:38:55;;;;;;;19.77;16.27;;;11.20;64.40;;;;;;5005821;28;20207;-85